Time;durP1;ratioP1;P1;durP2;ratioP2;P2;SDS_P1;SDS_P2;PMS_P1;PMS_P2;Temp;Humidity;BMP_temperature;BMP_pressure;BME280_temperature;BME280_humidity;BME280_pressure;Samples;Min_cycle;Max_cycle;Signal;HPM_P1;HPM_P2
2023/07/13 00:01:40;;;;;;;28.52;10.90;;;;;;;;;;6058561;23;20023;-58
2023/07/13 00:04:14;;;;;;;36.33;11.25;;;;;;;;;;6058433;23;20456;-59
2023/07/13 00:06:44;;;;;;;29.80;11.20;;;;;;;;;;6058877;23;20022;-58
2023/07/13 00:09:19;;;;;;;38.30;11.20;;;;;;;;;;6059620;23;20023;-58
2023/07/13 00:11:50;;;;;;;31.08;12.20;;;;;;;;;;6059399;23;20019;-58
2023/07/13 00:14:17;;;;;;;31.70;10.70;;;;;;;;;;6058025;23;20106;-59
2023/07/13 00:17:00;;;;;;;35.53;11.60;;;;;;;;;;6059737;23;20077;-59
2023/07/13 00:19:36;;;;;;;41.50;12.45;;;;;;;;;;6029736;23;20031;-59
2023/07/13 00:22:09;;;;;;;40.05;11.90;;;;;;;;;;6032093;23;20082;-59
2023/07/13 00:24:41;;;;;;;36.20;11.48;;;;;;;;;;6030248;23;20028;-59
2023/07/13 00:27:09;;;;;;;39.80;13.68;;;;;;;;;;6030514;23;20023;-59
2023/07/13 00:29:44;;;;;;;41.15;13.15;;;;;;;;;;6030841;23;20027;-59
2023/07/13 00:32:11;;;;;;;29.55;12.15;;;;;;;;;;6032581;23;20027;-63
2023/07/13 00:34:39;;;;;;;44.15;13.52;;;;;;;;;;6029833;23;20042;-63
2023/07/13 00:37:12;;;;;;;31.83;13.02;;;;;;;;;;6031179;23;20082;-63
2023/07/13 00:39:39;;;;;;;47.58;13.70;;;;;;;;;;6030605;23;20027;-63
2023/07/13 00:42:14;;;;;;;33.88;12.18;;;;;;;;;;6030610;23;20098;-63
2023/07/13 00:44:47;;;;;;;38.20;12.00;;;;;;;;;;6030147;23;20027;-63
2023/07/13 00:47:21;;;;;;;45.17;14.55;;;;;;;;;;6032313;23;20026;-62
2023/07/13 00:49:55;;;;;;;52.13;15.10;;;;;;;;;;6029212;23;20023;-63
2023/07/13 00:52:30;;;;;;;52.17;15.35;;;;;;;;;;6030855;23;20027;-63
2023/07/13 00:54:58;;;;;;;44.63;15.35;;;;;;;;;;6029345;23;20511;-62
2023/07/13 00:57:25;;;;;;;;;;;;;;;;;;6030494;23;20371;-59
2023/07/13 00:59:59;;;;;;;34.45;13.07;;;;;;;;;;6030722;23;19977;-67
2023/07/13 01:02:27;;;;;;;47.20;13.98;;;;;;;;;;6031474;23;20031;-68
2023/07/13 01:05:01;;;;;;;47.75;14.70;;;;;;;;;;6029306;23;20098;-68
2023/07/13 01:07:28;;;;;;;37.25;13.55;;;;;;;;;;6030587;23;20030;-68
2023/07/13 01:09:56;;;;;;;38.58;15.00;;;;;;;;;;6030791;23;20029;-67
2023/07/13 01:12:30;;;;;;;41.45;14.18;;;;;;;;;;6029124;23;20031;-68
2023/07/13 01:15:00;;;;;;;43.08;14.65;;;;;;;;;;6030179;23;20079;-63
2023/07/13 01:17:46;;;;;;;62.17;16.50;;;;;;;;;;6038124;23;20491;-63
2023/07/13 01:20:13;;;;;;;49.17;15.65;;;;;;;;;;6058338;23;20035;-63
2023/07/13 01:22:47;;;;;;;48.38;14.98;;;;;;;;;;6058090;23;20082;-63
2023/07/13 01:25:21;;;;;;;49.47;14.40;;;;;;;;;;6060168;23;20106;-63
2023/07/13 01:27:57;;;;;;;47.58;16.75;;;;;;;;;;6058494;23;20553;-56
2023/07/13 01:30:24;;;;;;;66.13;19.45;;;;;;;;;;6057972;23;20030;-58
2023/07/13 01:32:51;;;;;;;50.30;16.10;;;;;;;;;;6059605;23;20089;-58
2023/07/13 01:35:26;;;;;;;46.75;16.25;;;;;;;;;;6058314;23;20097;-58
2023/07/13 01:37:54;;;;;;;48.35;16.00;;;;;;;;;;6060204;23;20022;-58
2023/07/13 01:40:28;;;;;;;50.45;15.35;;;;;;;;;;6058703;23;20027;-58
2023/07/13 01:42:55;;;;;;;50.58;16.63;;;;;;;;;;6058577;23;20030;-52
2023/07/13 01:45:23;;;;;;;41.08;15.80;;;;;;;;;;6059463;23;20031;-50
2023/07/13 01:47:57;;;;;;;47.10;15.18;;;;;;;;;;6059467;23;20478;-51
2023/07/13 01:50:25;;;;;;;38.63;16.00;;;;;;;;;;6059231;23;20082;-53
2023/07/13 01:52:59;;;;;;;38.63;15.05;;;;;;;;;;6058314;23;20382;-58
2023/07/13 01:55:27;;;;;;;34.63;14.38;;;;;;;;;;6058479;23;20431;-68
2023/07/13 01:57:54;;;;;;;42.10;15.68;;;;;;;;;;6057518;23;20031;-69
2023/07/13 02:00:28;;;;;;;49.78;15.60;;;;;;;;;;6059876;23;20065;-69
2023/07/13 02:02:55;;;;;;;40.97;16.40;;;;;;;;;;6056771;23;20027;-67
2023/07/13 02:05:22;;;;;;;34.00;14.23;;;;;;;;;;6058789;23;20035;-69
2023/07/13 02:07:56;;;;;;;43.05;15.52;;;;;;;;;;6059685;23;20031;-68
2023/07/13 02:10:23;;;;;;;37.17;14.63;;;;;;;;;;6058103;23;20067;-69
2023/07/13 02:12:57;;;;;;;39.72;14.23;;;;;;;;;;6059331;23;20475;-64
2023/07/13 02:15:24;;;;;;;38.67;16.10;;;;;;;;;;6058719;23;20407;-63
2023/07/13 02:17:52;;;;;;;38.10;13.57;;;;;;;;;;6058562;23;20027;-64
2023/07/13 02:20:32;;;;;;;33.83;13.40;;;;;;;;;;6058513;23;20490;-64
2023/07/13 02:22:59;;;;;;;42.50;14.50;;;;;;;;;;6058248;23;20026;-62
2023/07/13 02:25:36;;;;;;;35.28;15.05;;;;;;;;;;6059685;23;20027;-58
2023/07/13 02:28:03;;;;;;;46.17;15.25;;;;;;;;;;6061996;23;20041;-59
2023/07/13 02:30:30;;;;;;;46.25;14.90;;;;;;;;;;6061171;23;20033;-58
2023/07/13 02:33:05;;;;;;;49.13;14.45;;;;;;;;;;6059696;23;20027;-58
2023/07/13 02:35:32;;;;;;;;;;;;;;;;;;6061026;23;20026;-58
2023/07/13 02:38:05;;;;;;;43.15;13.27;;;;;;;;;;6057578;23;20369;-58
2023/07/13 02:40:33;;;;;;;40.58;12.80;;;;;;;;;;6059555;23;20026;-59
2023/07/13 02:43:00;;;;;;;37.28;15.93;;;;;;;;;;6060551;23;20031;-59
2023/07/13 02:45:34;;;;;;;33.83;13.23;;;;;;;;;;6060724;23;20033;-58
2023/07/13 02:48:01;;;;;;;37.20;11.93;;;;;;;;;;6061584;23;20019;-58
2023/07/13 02:50:35;;;;;;;34.40;13.93;;;;;;;;;;6057989;23;20517;-59
2023/07/13 02:53:03;;;;;;;32.90;14.10;;;;;;;;;;6059435;23;20051;-64
2023/07/13 02:55:30;;;;;;;45.78;14.23;;;;;;;;;;6060212;23;20027;-65
2023/07/13 02:58:05;;;;;;;42.83;13.65;;;;;;;;;;6060289;23;20030;-66
2023/07/13 03:00:32;;;;;;;37.10;16.02;;;;;;;;;;6060516;23;20431;-66
2023/07/13 03:03:06;;;;;;;37.92;14.02;;;;;;;;;;6060264;23;20082;-66
2023/07/13 03:05:34;;;;;;;40.30;14.48;;;;;;;;;;6059113;23;20110;-67
2023/07/13 03:08:01;;;;;;;37.55;12.63;;;;;;;;;;6061204;23;20027;-67
2023/07/13 03:10:35;;;;;;;46.95;13.63;;;;;;;;;;6059360;23;20031;-67
2023/07/13 03:13:03;;;;;;;32.60;13.60;;;;;;;;;;6059086;23;20030;-67
2023/07/13 03:15:36;;;;;;;49.65;13.77;;;;;;;;;;6059387;23;20023;-67
2023/07/13 03:18:10;;;;;;;31.25;12.75;;;;;;;;;;6060120;23;20027;-60
2023/07/13 03:20:52;;;;;;;35.30;13.55;;;;;;;;;;6060298;23;20023;-58
2023/07/13 03:23:19;;;;;;;41.85;14.27;;;;;;;;;;6059625;23;20023;-59
2023/07/13 03:26:04;;;;;;;45.78;12.93;;;;;;;;;;6059940;23;20026;-59
2023/07/13 03:28:31;;;;;;;28.23;9.90;;;;;;;;;;6058941;23;20811;-58
2023/07/13 03:31:08;;;;;;;26.98;11.93;;;;;;;;;;6060481;23;20074;-58
2023/07/13 03:33:35;;;;;;;36.47;14.52;;;;;;;;;;6058292;23;20031;-59
2023/07/13 03:36:12;;;;;;;52.40;15.00;;;;;;;;;;6060172;23;20082;-68
2023/07/13 03:38:39;;;;;;;41.03;13.30;;;;;;;;;;6059351;23;20394;-67
2023/07/13 03:41:13;;;;;;;50.08;11.80;;;;;;;;;;6060718;23;20023;-68
2023/07/13 03:43:40;;;;;;;48.92;15.48;;;;;;;;;;6058915;23;20162;-67
2023/07/13 03:46:08;;;;;;;41.20;12.63;;;;;;;;;;6060364;23;20034;-59
2023/07/13 03:48:43;;;;;;;30.98;12.82;;;;;;;;;;6059897;23;20033;-59
2023/07/13 03:51:11;;;;;;;37.95;13.20;;;;;;;;;;6060254;23;20078;-60
2023/07/13 03:53:45;;;;;;;34.92;14.02;;;;;;;;;;6054013;23;20023;-61
2023/07/13 03:56:15;;;;;;;30.48;12.43;;;;;;;;;;6060014;23;20033;-60
2023/07/13 03:58:43;;;;;;;34.53;13.55;;;;;;;;;;6059620;23;20110;-61
2023/07/13 04:01:19;;;;;;;35.63;12.98;;;;;;;;;;6057516;23;20537;-60
2023/07/13 04:03:47;;;;;;;33.60;11.98;;;;;;;;;;6058437;23;20023;-61
2023/07/13 04:06:23;;;;;;;36.90;11.80;;;;;;;;;;6060783;23;20521;-59
2023/07/13 04:08:52;;;;;;;35.22;9.35;;;;;;;;;;6058414;23;20022;-60
2023/07/13 04:11:20;;;;;;;33.90;9.77;;;;;;;;;;6060167;23;20326;-59
2023/07/13 04:13:53;;;;;;;20.90;7.13;;;;;;;;;;6060326;23;20089;-60
2023/07/13 04:16:21;;;;;;;26.13;5.78;;;;;;;;;;6058704;23;20034;-60
2023/07/13 04:19:02;;;;;;;23.45;6.68;;;;;;;;;;6059572;23;20038;-55
2023/07/13 04:21:31;;;;;;;20.13;5.05;;;;;;;;;;6059700;23;20026;-54
2023/07/13 04:24:04;;;;;;;21.33;5.45;;;;;;;;;;6058004;23;20031;-54
2023/07/13 04:26:35;;;;;;;21.13;4.93;;;;;;;;;;6060234;23;20312;-56
2023/07/13 04:29:03;;;;;;;22.38;4.95;;;;;;;;;;6057486;23;20027;-56
2023/07/13 04:31:37;;;;;;;13.68;4.30;;;;;;;;;;6057453;23;20047;-55
2023/07/13 04:34:05;;;;;;;;;;;;;;;;;;6060888;23;20034;-61
2023/07/13 04:36:38;;;;;;;22.90;4.80;;;;;;;;;;6059744;23;19973;-61
2023/07/13 04:39:06;;;;;;;18.15;4.82;;;;;;;;;;6058660;23;20360;-61
2023/07/13 04:41:34;;;;;;;17.83;4.68;;;;;;;;;;6059365;23;20035;-61
2023/07/13 04:44:07;;;;;;;22.20;5.10;;;;;;;;;;6057798;23;20030;-67
2023/07/13 04:46:35;;;;;;;24.30;5.90;;;;;;;;;;6058333;23;20431;-60
2023/07/13 04:49:03;;;;;;;17.90;5.78;;;;;;;;;;6059286;23;20360;-60
2023/07/13 04:51:38;;;;;;;18.15;5.38;;;;;;;;;;6058230;23;20027;-60
2023/07/13 04:54:05;;;;;;;;;;;;;;;;;;6059052;23;20431;-60
2023/07/13 04:56:39;;;;;;;22.60;4.97;;;;;;;;;;6060447;23;19917;-60
2023/07/13 04:59:07;;;;;;;22.30;4.97;;;;;;;;;;6058873;23;20042;-60
2023/07/13 05:01:34;;;;;;;27.30;6.03;;;;;;;;;;6057531;23;20027;-59
2023/07/13 05:04:08;;;;;;;22.45;6.03;;;;;;;;;;6059323;23;20111;-59
2023/07/13 05:06:35;;;;;;;;;;;;;;;;;;6059995;23;20086;-59
2023/07/13 05:09:09;;;;;;;26.60;6.40;;;;;;;;;;6059103;23;20008;-59
2023/07/13 05:11:36;;;;;;;16.75;5.80;;;;;;;;;;6058345;23;20110;-54
2023/07/13 05:14:03;;;;;;;19.85;5.97;;;;;;;;;;6060489;23;20251;-59
2023/07/13 05:16:37;;;;;;;21.73;5.55;;;;;;;;;;6058801;23;20423;-61
2023/07/13 05:19:17;;;;;;;28.52;5.45;;;;;;;;;;6056739;23;20095;-61
2023/07/13 05:21:51;;;;;;;27.05;5.43;;;;;;;;;;6059316;23;20082;-62
2023/07/13 05:24:19;;;;;;;18.52;4.85;;;;;;;;;;6056235;23;20431;-61
2023/07/13 05:26:53;;;;;;;22.13;5.25;;;;;;;;;;6058466;23;20027;-61
2023/07/13 05:29:21;;;;;;;21.05;5.53;;;;;;;;;;6058027;23;20026;-61
2023/07/13 05:31:48;;;;;;;19.67;5.63;;;;;;;;;;6059521;23;20026;-59
2023/07/13 05:34:21;;;;;;;22.38;4.80;;;;;;;;;;6058173;23;20427;-58
2023/07/13 05:36:49;;;;;;;21.10;5.63;;;;;;;;;;6059308;23;20027;-59
2023/07/13 05:39:23;;;;;;;20.60;4.80;;;;;;;;;;6058539;23;20534;-59
2023/07/13 05:41:50;;;;;;;;;;;;;;;;;;6059448;23;20030;-59
2023/07/13 05:44:18;;;;;;;17.40;5.32;;;;;;;;;;6055436;23;19981;-70
2023/07/13 05:46:53;;;;;;;21.92;5.53;;;;;;;;;;6059684;23;20027;-70
2023/07/13 05:49:20;;;;;;;14.52;4.50;;;;;;;;;;6058748;23;20027;-70
2023/07/13 05:51:47;;;;;;;19.23;4.75;;;;;;;;;;6057993;23;20030;-70
2023/07/13 05:54:22;;;;;;;23.10;4.53;;;;;;;;;;6056226;23;20090;-71
2023/07/13 05:56:49;;;;;;;22.33;4.80;;;;;;;;;;6058273;23;20027;-70
2023/07/13 05:59:17;;;;;;;15.40;4.53;;;;;;;;;;6059474;23;20026;-61
2023/07/13 06:01:54;;;;;;;23.38;5.50;;;;;;;;;;6058328;23;20075;-61
2023/07/13 06:04:22;;;;;;;17.58;4.03;;;;;;;;;;6060636;23;20506;-62
2023/07/13 06:06:56;;;;;;;14.68;4.82;;;;;;;;;;6061336;23;20496;-63
2023/07/13 06:09:23;;;;;;;20.67;4.60;;;;;;;;;;6058805;23;20506;-60
2023/07/13 06:11:50;;;;;;;17.10;3.83;;;;;;;;;;6059990;23;20031;-62
2023/07/13 06:14:25;;;;;;;14.85;4.18;;;;;;;;;;6060812;23;20041;-63
2023/07/13 06:16:52;;;;;;;21.23;3.85;;;;;;;;;;6061123;23;20434;-62
2023/07/13 06:19:20;;;;;;;15.13;3.78;;;;;;;;;;6058145;23;20050;-61
2023/07/13 06:21:53;;;;;;;21.95;4.53;;;;;;;;;;6058327;23;20426;-62
2023/07/13 06:24:23;;;;;;;16.00;4.15;;;;;;;;;;6055030;23;20222;-61
2023/07/13 06:26:58;;;;;;;17.52;4.05;;;;;;;;;;6062109;23;20058;-70
2023/07/13 06:29:25;;;;;;;21.58;4.18;;;;;;;;;;6059238;23;20618;-70
2023/07/13 06:31:52;;;;;;;14.35;4.10;;;;;;;;;;6059181;23;20023;-71
2023/07/13 06:34:26;;;;;;;13.20;3.25;;;;;;;;;;6059912;23;20030;-71
2023/07/13 06:36:54;;;;;;;18.02;3.30;;;;;;;;;;6058472;23;20034;-55
2023/07/13 06:39:30;;;;;;;10.02;2.70;;;;;;;;;;6056512;23;20026;-59
2023/07/13 06:41:57;;;;;;;11.18;3.53;;;;;;;;;;6058787;23;20140;-59
2023/07/13 06:44:24;;;;;;;9.40;3.10;;;;;;;;;;6058956;23;20031;-58
2023/07/13 06:46:57;;;;;;;10.77;3.40;;;;;;;;;;6059733;23;20455;-59
2023/07/13 06:49:25;;;;;;;10.65;2.70;;;;;;;;;;6059263;23;20026;-59
2023/07/13 06:51:58;;;;;;;11.52;3.10;;;;;;;;;;6058422;23;20023;-59
2023/07/13 06:54:26;;;;;;;14.50;2.97;;;;;;;;;;6055484;23;20050;-59
2023/07/13 06:56:53;;;;;;;15.85;3.65;;;;;;;;;;6059876;23;20026;-60
2023/07/13 06:59:26;;;;;;;17.15;3.80;;;;;;;;;;6058556;23;20027;-60
2023/07/13 07:01:53;;;;;;;9.93;3.05;;;;;;;;;;6058915;23;20122;-60
2023/07/13 07:04:28;;;;;;;11.57;2.60;;;;;;;;;;6059060;23;20023;-60
2023/07/13 07:06:55;;;;;;;10.38;2.70;;;;;;;;;;6059641;23;20698;-60
2023/07/13 07:09:25;;;;;;;8.25;2.70;;;;;;;;;;6057207;23;20290;-62
2023/07/13 07:11:58;;;;;;;8.90;2.70;;;;;;;;;;6059997;23;20022;-62
2023/07/13 07:14:30;;;;;;;11.98;2.95;;;;;;;;;;6058713;23;20368;-62
2023/07/13 07:17:04;;;;;;;7.72;2.55;;;;;;;;;;6060098;23;20027;-62
2023/07/13 07:19:45;;;;;;;10.75;2.47;;;;;;;;;;6058059;23;20027;-62
2023/07/13 07:22:20;;;;;;;11.88;2.70;;;;;;;;;;6059616;23;20030;-62
2023/07/13 07:24:47;;;;;;;11.95;2.80;;;;;;;;;;6057150;23;20023;-60
2023/07/13 07:27:15;;;;;;;10.95;2.88;;;;;;;;;;6059647;23;20035;-60
2023/07/13 07:29:51;;;;;;;11.00;2.70;;;;;;;;;;6068630;23;20134;-60
2023/07/13 07:32:31;;;;;;;10.75;2.40;;;;;;;;;;6058721;23;20035;-59
2023/07/13 07:35:07;;;;;;;15.45;2.28;;;;;;;;;;6059395;23;20031;-62
2023/07/13 07:37:35;;;;;;;9.45;2.10;;;;;;;;;;6057556;23;20037;-59
2023/07/13 07:40:12;;;;;;;7.15;2.45;;;;;;;;;;6059266;23;20030;-58
2023/07/13 07:42:42;;;;;;;7.03;2.53;;;;;;;;;;6068340;23;20027;-58
2023/07/13 07:45:16;;;;;;;11.25;2.42;;;;;;;;;;6057859;23;20062;-59
2023/07/13 07:47:50;;;;;;;9.68;2.63;;;;;;;;;;6058825;23;20070;-59
2023/07/13 07:50:24;;;;;;;9.35;2.80;;;;;;;;;;6059435;23;20026;-59
2023/07/13 07:52:51;;;;;;;10.85;2.75;;;;;;;;;;6057633;23;20065;-59
2023/07/13 07:55:18;;;;;;;9.63;2.67;;;;;;;;;;6058340;23;20236;-59
2023/07/13 07:57:57;;;;;;;7.28;2.30;;;;;;;;;;6069404;23;20113;-59
2023/07/13 08:00:30;;;;;;;9.07;2.67;;;;;;;;;;6068147;23;20031;-58
2023/07/13 08:03:08;;;;;;;12.13;2.60;;;;;;;;;;6069838;23;20031;-59
2023/07/13 08:05:38;;;;;;;10.45;2.53;;;;;;;;;;6058870;23;20023;-59
2023/07/13 08:08:31;;;;;;;8.50;2.42;;;;;;;;;;6057592;23;20058;-60
2023/07/13 08:11:02;;;;;;;5.82;2.03;;;;;;;;;;6057763;23;20494;-60
2023/07/13 08:13:38;;;;;;;10.75;2.78;;;;;;;;;;6056204;23;20082;-60
2023/07/13 08:16:13;;;;;;;6.75;2.60;;;;;;;;;;6058345;23;20023;-60
2023/07/13 08:19:00;;;;;;;8.23;2.83;;;;;;;;;;6057855;23;20035;-60
2023/07/13 08:21:35;;;;;;;9.65;2.40;;;;;;;;;;6056691;23;20078;-54
2023/07/13 08:24:09;;;;;;;8.52;2.47;;;;;;;;;;6059498;23;20030;-56
2023/07/13 08:26:36;;;;;;;12.85;2.80;;;;;;;;;;6057643;23;20394;-54
2023/07/13 08:29:10;;;;;;;12.57;2.85;;;;;;;;;;6059655;23;20078;-55
2023/07/13 08:31:37;;;;;;;6.70;2.40;;;;;;;;;;6057983;23;20026;-60
2023/07/13 08:34:04;;;;;;;10.10;2.30;;;;;;;;;;6056868;23;20502;-59
2023/07/13 08:36:42;;;;;;;11.60;2.40;;;;;;;;;;6055613;23;20090;-60
2023/07/13 08:39:09;;;;;;;8.85;2.78;;;;;;;;;;6059078;23;20034;-59
2023/07/13 08:41:44;;;;;;;7.72;2.10;;;;;;;;;;6057098;23;20026;-59
2023/07/13 08:44:32;;;;;;;4.80;1.75;;;;;;;;;;6059768;23;20023;-59
2023/07/13 08:47:07;;;;;;;5.60;1.90;;;;;;;;;;6057783;23;20027;-59
2023/07/13 08:49:35;;;;;;;6.80;1.90;;;;;;;;;;6058649;23;20031;-53
2023/07/13 08:52:06;;;;;;;7.65;1.80;;;;;;;;;;6058590;23;20027;-53
2023/07/13 08:54:42;;;;;;;6.40;2.60;;;;;;;;;;6058003;23;20046;-54
2023/07/13 08:57:17;;;;;;;8.55;2.35;;;;;;;;;;6059057;23;20033;-50
2023/07/13 08:59:51;;;;;;;7.30;2.00;;;;;;;;;;6057223;23;20094;-60
2023/07/13 09:02:18;;;;;;;;;;;;;;;;;;6056056;23;20027;-53
2023/07/13 09:04:52;;;;;;;5.05;1.88;;;;;;;;;;6058292;23;20262;-54
2023/07/13 09:07:39;;;;;;;6.72;1.67;;;;;;;;;;6059613;23;20027;-52
2023/07/13 09:10:22;;;;;;;10.73;2.40;;;;;;;;;;6057319;23;20074;-52
2023/07/13 09:13:08;;;;;;;9.13;2.13;;;;;;;;;;6056122;23;20133;-54
2023/07/13 09:15:47;;;;;;;7.68;2.00;;;;;;;;;;6057851;23;20027;-54
2023/07/13 09:18:42;;;;;;;5.95;2.00;;;;;;;;;;6059274;23;20110;-59
2023/07/13 09:21:29;;;;;;;15.00;2.55;;;;;;;;;;6058419;23;20078;-58
2023/07/13 09:24:19;;;;;;;7.05;2.17;;;;;;;;;;6056174;23;20090;-58
2023/07/13 09:26:59;;;;;;;5.80;2.13;;;;;;;;;;6048520;23;20085;-58
2023/07/13 09:29:28;;;;;;;13.32;1.98;;;;;;;;;;6055421;23;20333;-58
2023/07/13 09:32:04;;;;;;;4.63;1.75;;;;;;;;;;6058931;23;20023;-58
2023/07/13 09:34:32;;;;;;;11.82;2.38;;;;;;;;;;6058994;23;20098;-58
2023/07/13 09:37:06;;;;;;;6.43;2.00;;;;;;;;;;6057915;23;20019;-59
2023/07/13 09:39:39;;;;;;;8.82;1.90;;;;;;;;;;6058126;23;20031;-59
2023/07/13 09:42:18;;;;;;;11.98;2.03;;;;;;;;;;6058381;23;20052;-59
2023/07/13 09:44:56;;;;;;;6.10;2.25;;;;;;;;;;6059089;23;20027;-59
2023/07/13 09:47:31;;;;;;;6.43;2.17;;;;;;;;;;6060937;23;20025;-59
2023/07/13 09:49:58;;;;;;;16.55;2.78;;;;;;;;;;6056199;23;20427;-58
2023/07/13 09:52:41;;;;;;;6.55;2.33;;;;;;;;;;6057184;23;20054;-59
2023/07/13 09:55:30;;;;;;;8.50;2.25;;;;;;;;;;6058539;23;20078;-58
2023/07/13 09:57:58;;;;;;;6.72;2.33;;;;;;;;;;6058003;23;20033;-59
2023/07/13 10:00:32;;;;;;;6.18;2.25;;;;;;;;;;6058713;23;20023;-58
2023/07/13 10:03:20;;;;;;;5.47;2.38;;;;;;;;;;6058264;23;20027;-58
2023/07/13 10:05:54;;;;;;;8.48;2.05;;;;;;;;;;6055982;23;20026;-57
2023/07/13 10:08:30;;;;;;;10.00;2.60;;;;;;;;;;6059063;23;20022;-58
2023/07/13 10:10:58;;;;;;;11.05;2.50;;;;;;;;;;6056891;23;20444;-57
2023/07/13 10:13:59;;;;;;;6.00;2.10;;;;;;;;;;6058023;23;20098;-57
2023/07/13 10:16:33;;;;;;;6.18;2.20;;;;;;;;;;6055715;23;20031;-59
2023/07/13 10:19:22;;;;;;;7.60;2.17;;;;;;;;;;6057570;23;20030;-59
2023/07/13 10:21:59;;;;;;;8.23;1.85;;;;;;;;;;6057746;23;20026;-59
2023/07/13 10:24:33;;;;;;;3.85;1.77;;;;;;;;;;6058788;23;20019;-59
2023/07/13 10:27:10;;;;;;;5.95;2.45;;;;;;;;;;6057861;23;20033;-57
2023/07/13 10:29:48;;;;;;;2.90;1.50;;;;;;;;;;6058178;23;20071;-58
2023/07/13 10:32:16;;;;;;;6.47;1.83;;;;;;;;;;6057516;23;20110;-59
2023/07/13 10:34:52;;;;;;;8.82;2.25;;;;;;;;;;6056374;23;20054;-58
2023/07/13 10:37:32;;;;;;;4.65;1.73;;;;;;;;;;6058372;23;20051;-57
2023/07/13 10:40:07;;;;;;;10.60;1.75;;;;;;;;;;6058612;23;20090;-59
2023/07/13 10:42:43;;;;;;;4.45;1.55;;;;;;;;;;6056303;23;20038;-58
2023/07/13 10:45:20;;;;;;;4.07;1.90;;;;;;;;;;6058053;23;20429;-58
2023/07/13 10:47:49;;;;;;;8.38;1.63;;;;;;;;;;6060214;23;20026;-57
2023/07/13 10:50:24;;;;;;;7.72;1.70;;;;;;;;;;6058580;23;20054;-58
2023/07/13 10:53:03;;;;;;;4.57;1.80;;;;;;;;;;6059848;23;20026;-58
2023/07/13 10:55:31;;;;;;;7.38;2.08;;;;;;;;;;6059729;23;20098;-58
2023/07/13 10:58:26;;;;;;;9.17;2.17;;;;;;;;;;6060080;23;20069;-53
2023/07/13 11:00:57;;;;;;;6.10;1.98;;;;;;;;;;6058275;23;20534;-53
2023/07/13 11:03:32;;;;;;;6.43;1.67;;;;;;;;;;6059350;23;20490;-51
2023/07/13 11:06:11;;;;;;;10.98;2.00;;;;;;;;;;6059495;23;20066;-51
2023/07/13 11:08:47;;;;;;;6.82;1.80;;;;;;;;;;6058799;23;20082;-53
2023/07/13 11:11:31;;;;;;;5.75;2.00;;;;;;;;;;6060218;23;20396;-66
2023/07/13 11:14:07;;;;;;;8.05;2.28;;;;;;;;;;6059755;23;20487;-66
2023/07/13 11:16:46;;;;;;;10.02;2.03;;;;;;;;;;6058712;23;20019;-66
2023/07/13 11:19:27;;;;;;;6.20;1.95;;;;;;;;;;6058996;23;20027;-66
2023/07/13 11:22:03;;;;;;;10.65;2.22;;;;;;;;;;6058830;23;20501;-58
2023/07/13 11:25:01;;;;;;;11.95;2.25;;;;;;;;;;6059054;23;20435;-58
2023/07/13 11:27:58;;;;;;;9.32;2.40;;;;;;;;;;6059415;23;20038;-58
2023/07/13 11:30:35;;;;;;;7.22;2.10;;;;;;;;;;6044273;23;20356;-58
2023/07/13 11:33:05;;;;;;;7.22;2.33;;;;;;;;;;6058376;23;20030;-58
2023/07/13 11:36:02;;;;;;;11.40;2.33;;;;;;;;;;6058421;23;20090;-58
2023/07/13 11:38:40;;;;;;;6.60;2.10;;;;;;;;;;6060249;23;20038;-58
2023/07/13 11:41:19;;;;;;;7.15;2.55;;;;;;;;;;6058691;23;20352;-58
2023/07/13 11:43:49;;;;;;;9.25;2.28;;;;;;;;;;6059298;23;20035;-58
2023/07/13 11:46:24;;;;;;;5.35;2.30;;;;;;;;;;6058911;23;20418;-58
2023/07/13 11:48:52;;;;;;;5.47;2.22;;;;;;;;;;6058422;23;20088;-57
2023/07/13 11:51:21;;;;;;;10.00;2.22;;;;;;;;;;6058818;23;20030;-58
2023/07/13 11:53:56;;;;;;;8.60;2.10;;;;;;;;;;6059876;23;20019;-58
2023/07/13 11:56:25;;;;;;;8.88;2.40;;;;;;;;;;6056917;23;20054;-57
2023/07/13 11:59:04;;;;;;;7.05;2.65;;;;;;;;;;6055213;23;20054;-57
2023/07/13 12:01:34;;;;;;;8.07;2.22;;;;;;;;;;6056281;23;20102;-58
2023/07/13 12:04:18;;;;;;;9.95;2.60;;;;;;;;;;6057174;23;20030;-58
2023/07/13 12:06:46;;;;;;;12.82;2.60;;;;;;;;;;6058820;23;20089;-58
2023/07/13 12:09:25;;;;;;;7.30;2.35;;;;;;;;;;6059859;23;20082;-66
2023/07/13 12:11:52;;;;;;;6.03;2.10;;;;;;;;;;6057603;23;20408;-66
2023/07/13 12:14:19;;;;;;;9.60;2.50;;;;;;;;;;6058226;23;20558;-65
2023/07/13 12:16:53;;;;;;;5.07;1.80;;;;;;;;;;6056599;23;20023;-66
2023/07/13 12:19:28;;;;;;;5.68;2.28;;;;;;;;;;6056616;23;20406;-63
2023/07/13 12:22:02;;;;;;;6.90;2.00;;;;;;;;;;6052499;23;20739;-50
2023/07/13 12:24:29;;;;;;;6.57;2.15;;;;;;;;;;6057653;23;20047;-51
2023/07/13 12:27:04;;;;;;;5.47;1.77;;;;;;;;;;6058143;23;20078;-52
2023/07/13 12:29:32;;;;;;;8.63;2.00;;;;;;;;;;6059162;23;20086;-52
2023/07/13 12:31:59;;;;;;;7.28;1.98;;;;;;;;;;6057509;23;20107;-51
2023/07/13 12:34:50;;;;;;;5.75;2.03;;;;;;;;;;6059910;23;20419;-53
2023/07/13 12:37:17;;;;;;;5.82;2.03;;;;;;;;;;6058634;23;20023;-57
2023/07/13 12:39:52;;;;;;;7.65;1.85;;;;;;;;;;6056456;23;20442;-58
2023/07/13 12:42:28;;;;;;;4.90;1.63;;;;;;;;;;6057822;23;20037;-57
2023/07/13 12:44:58;;;;;;;5.85;1.73;;;;;;;;;;6056738;23;20026;-56
2023/07/13 12:47:25;;;;;;;6.95;2.10;;;;;;;;;;6056780;23;20077;-61
2023/07/13 12:50:01;;;;;;;4.53;1.45;;;;;;;;;;6057379;23;20022;-61
2023/07/13 12:52:33;;;;;;;8.35;1.85;;;;;;;;;;6056882;23;20111;-61
2023/07/13 12:55:14;;;;;;;6.68;1.70;;;;;;;;;;6058201;23;20031;-61
2023/07/13 12:57:44;;;;;;;5.25;1.90;;;;;;;;;;6058829;23;20023;-61
2023/07/13 13:00:20;;;;;;;6.22;1.73;;;;;;;;;;6056073;23;20348;-61
2023/07/13 13:02:49;;;;;;;5.70;1.65;;;;;;;;;;6056913;23;20031;-61
2023/07/13 13:05:42;;;;;;;13.93;1.65;;;;;;;;;;6058423;23;20026;-57
2023/07/13 13:08:12;;;;;;;5.57;1.70;;;;;;;;;;6057287;23;20566;-58
2023/07/13 13:10:46;;;;;;;6.15;1.35;;;;;;;;;;6056564;23;20114;-58
2023/07/13 13:13:13;;;;;;;4.57;1.40;;;;;;;;;;6057820;23;20478;-57
2023/07/13 13:15:40;;;;;;;5.15;1.30;;;;;;;;;;6057416;23;20038;-56
2023/07/13 13:18:19;;;;;;;9.00;1.63;;;;;;;;;;6058302;23;20085;-62
2023/07/13 13:20:53;;;;;;;4.45;1.58;;;;;;;;;;6056658;23;20027;-61
2023/07/13 13:23:28;;;;;;;6.75;1.50;;;;;;;;;;6056991;23;20468;-62
2023/07/13 13:25:55;;;;;;;12.98;1.88;;;;;;;;;;6057587;23;20030;-62
2023/07/13 13:28:29;;;;;;;5.13;1.50;;;;;;;;;;6058726;23;20022;-62
2023/07/13 13:30:56;;;;;;;6.45;1.48;;;;;;;;;;6058286;23;20062;-61
2023/07/13 13:33:28;;;;;;;4.72;1.30;;;;;;;;;;6057074;23;20315;-59
2023/07/13 13:36:02;;;;;;;6.80;1.58;;;;;;;;;;6057115;23;20031;-66
2023/07/13 13:38:29;;;;;;;;;;;;;;;;;;6057251;23;20082;-66
2023/07/13 13:41:03;;;;;;;5.55;1.52;;;;;;;;;;6057345;23;20381;-66
2023/07/13 13:43:30;;;;;;;2.30;0.95;;;;;;;;;;6055721;23;20019;-59
2023/07/13 13:46:12;;;;;;;7.50;1.70;;;;;;;;;;6056457;23;20031;-58
2023/07/13 13:48:40;;;;;;;5.82;1.20;;;;;;;;;;6058568;23;20461;-58
2023/07/13 13:51:18;;;;;;;5.80;1.30;;;;;;;;;;6057370;23;20027;-57
2023/07/13 13:53:45;;;;;;;3.33;1.20;;;;;;;;;;6057446;23;20379;-58
2023/07/13 13:56:20;;;;;;;5.25;1.60;;;;;;;;;;6058374;23;20023;-57
2023/07/13 13:58:47;;;;;;;9.90;1.52;;;;;;;;;;6057301;23;20447;-58
2023/07/13 14:01:22;;;;;;;4.75;1.20;;;;;;;;;;6056618;23;20026;-58
2023/07/13 14:03:51;;;;;;;6.25;1.30;;;;;;;;;;6057043;23;20027;-58
2023/07/13 14:06:18;;;;;;;4.43;1.30;;;;;;;;;;6057017;23;20027;-58
2023/07/13 14:08:52;;;;;;;6.15;1.30;;;;;;;;;;6056974;23;20030;-58
2023/07/13 14:11:20;;;;;;;4.47;1.60;;;;;;;;;;6055825;23;20415;-58
2023/07/13 14:13:57;;;;;;;6.22;1.40;;;;;;;;;;6058305;23;20026;-62
2023/07/13 14:16:27;;;;;;;6.03;1.52;;;;;;;;;;6057203;23;20542;-58
2023/07/13 14:18:58;;;;;;;6.72;1.48;;;;;;;;;;6057295;23;20031;-58
2023/07/13 14:21:38;;;;;;;5.53;1.58;;;;;;;;;;6059381;23;20026;-58
2023/07/13 14:24:06;;;;;;;5.88;1.48;;;;;;;;;;6058976;23;20082;-58
2023/07/13 14:26:41;;;;;;;4.60;1.73;;;;;;;;;;6057522;23;20033;-58
2023/07/13 14:29:13;;;;;;;7.85;1.63;;;;;;;;;;6060445;23;20565;-58
2023/07/13 14:31:51;;;;;;;4.50;1.50;;;;;;;;;;6058198;23;20102;-57
2023/07/13 14:34:25;;;;;;;5.50;1.50;;;;;;;;;;6059459;23;20367;-57
2023/07/13 14:36:52;;;;;;;6.90;1.70;;;;;;;;;;6058607;23;20022;-57
2023/07/13 14:39:21;;;;;;;3.72;1.45;;;;;;;;;;6055285;23;20031;-58
2023/07/13 14:41:56;;;;;;;4.55;1.63;;;;;;;;;;6057265;23;20356;-66
2023/07/13 14:44:25;;;;;;;11.15;1.70;;;;;;;;;;6057944;23;20398;-58
2023/07/13 14:46:53;;;;;;;6.63;1.80;;;;;;;;;;6059173;23;20105;-58
2023/07/13 14:49:27;;;;;;;5.25;1.70;;;;;;;;;;6058144;23;20054;-58
2023/07/13 14:52:02;;;;;;;4.85;1.80;;;;;;;;;;6058107;23;20255;-58
2023/07/13 14:54:29;;;;;;;6.32;2.05;;;;;;;;;;6058435;23;20062;-58
2023/07/13 14:56:56;;;;;;;;;;;;;;;;;;6060221;23;20441;-58
2023/07/13 14:59:30;;;;;;;4.70;1.80;;;;;;;;;;6059958;23;20300;-48
2023/07/13 15:01:57;;;;;;;5.40;2.20;;;;;;;;;;6058012;23;20446;-53
2023/07/13 15:04:32;;;;;;;7.18;2.08;;;;;;;;;;6057406;23;20033;-51
2023/07/13 15:06:59;;;;;;;;;;;;;;;;;;6058421;23;20022;-49
2023/07/13 15:09:27;;;;;;;6.00;2.22;;;;;;;;;;6059034;23;19964;-58